Huvudsida
METAR-TAF:

METAR-TAF

Flygplatser :

Ørsta-Volda flygplats. Hovden

Ørsta-Volda, Norge

latitud: 62-11N, longitud: 006-04E, höjd: 7 m

Aktuellt väderrapport

Denna rapport gjordes för 45 minuter sedan, klockan 06:50 UTC
Vind 4 kt varierande vindriktning
Temperatur 3°C
Fuktighet 87%
Tryck 973 hPa
Sikt 10 km eller mer
Få moln på en höjd av 1200 ft
Brutna moln på en höjd av 3400 ft
skurar i närheten

METAR: ENOV 220650Z VRB04KT 9999 VCSH FEW012 BKN034 03/01 Q0973 RMK WIND AT 2175FT 25017G28KT

Tid: 08:35 (07:35 UTC)


TAF: saknas

Aktuella väderrapporter och prognoser från 4000 flygplatser (METAR- och TAF-rapporter).

De tillgängliga stationerna syns som gula och röda prickar på kartan.

För musen över prickarna för att se namnen på stationerna.

Klicka sedan för att få väderrapporter och prognoser.

För att ändra kartan: Klicka på de gröna knapparna med ett svart kors på för att zooma in; den gröna knappen med ett streck på för att zooma ut; eller på de gröna pilarna för angränsande kartor.


METAR-TAF: